createdAt,value
2023-05-09T11:09:37.919Z,5.8044
2023-05-09T11:10:39.911Z,6.1096
2023-05-09T11:11:41.956Z,6.2025
2023-05-09T11:12:44.080Z,7.0735
2023-05-09T11:13:46.064Z,6.6178
2023-05-09T11:14:48.097Z,6.7140
2023-05-09T11:15:50.227Z,6.1979
2023-05-09T11:16:52.255Z,5.9803
2023-05-09T11:17:54.226Z,6.2449
2023-05-09T11:18:56.319Z,6.2128
2023-05-09T11:19:58.485Z,7.2506
2023-05-09T11:21:00.354Z,6.7378
2023-05-09T11:22:02.516Z,5.2886
2023-05-09T11:23:04.525Z,7.2203
2023-05-09T11:24:06.528Z,5.5837
2023-05-09T11:25:08.672Z,5.7383
2023-05-09T11:26:10.596Z,6.8898
2023-05-09T11:27:12.693Z,6.3265
2023-05-09T11:28:14.698Z,6.6646
2023-05-09T11:29:16.728Z,5.6499
2023-05-09T11:30:18.920Z,5.9886
2023-05-09T11:31:20.849Z,6.1158
2023-05-09T11:32:22.996Z,5.4769
2023-05-09T11:33:24.943Z,5.6944
2023-05-09T11:34:27.009Z,5.9040
2023-05-09T11:35:28.996Z,6.2068
2023-05-09T11:36:31.065Z,6.1202
2023-05-09T11:37:33.240Z,5.4758
2023-05-09T11:38:35.197Z,4.6621
2023-05-09T11:39:37.227Z,5.2675
2023-05-09T11:40:39.313Z,4.4780
2023-05-09T11:41:41.301Z,5.4871
2023-05-09T11:42:43.340Z,5.6762
2023-05-09T11:43:45.651Z,5.1843
2023-05-09T11:44:47.418Z,6.7123
2023-05-09T11:45:49.531Z,6.5849
2023-05-09T11:46:51.540Z,5.9945
2023-05-09T11:47:53.658Z,5.8933
2023-05-09T11:48:55.637Z,6.7599
2023-05-09T11:49:57.792Z,7.0971
2023-05-09T11:50:59.710Z,5.7375
2023-05-09T11:52:01.803Z,4.3167
2023-05-09T11:53:03.844Z,4.9655
2023-05-09T11:54:06.814Z,5.3176
2023-05-09T11:55:08.949Z,5.1466
2023-05-09T11:56:10.006Z,5.4131
2023-05-09T11:57:12.209Z,4.9831
2023-05-09T11:58:14.084Z,5.2951
2023-05-09T11:59:16.160Z,6.3754
2023-05-09T12:00:18.133Z,5.8521
2023-05-09T12:01:20.482Z,5.5059
2023-05-09T12:02:22.295Z,4.9434
2023-05-09T12:03:24.512Z,5.1864
2023-05-09T12:04:26.410Z,6.4966
2023-05-09T12:05:28.613Z,5.2856
2023-05-09T12:06:30.444Z,4.8235
2023-05-09T12:07:32.521Z,4.8136
2023-05-09T12:08:35.408Z,5.4676
2023-05-09T12:09:36.727Z,6.1460
2023-05-09T12:10:38.776Z,5.7040
2023-05-09T12:11:41.021Z,5.3423
2023-05-09T12:12:42.875Z,5.8045
2023-05-09T12:13:44.887Z,5.4178
2023-05-09T12:14:46.929Z,5.7026
2023-05-09T12:15:49.070Z,4.9808
2023-05-09T12:16:50.903Z,6.1722
2023-05-09T12:17:52.971Z,6.2542
2023-05-09T12:18:55.002Z,5.1874
2023-05-09T12:19:57.045Z,4.6108
2023-05-09T12:20:59.369Z,5.5769
2023-05-09T12:22:01.123Z,5.2699
2023-05-09T12:23:03.523Z,6.3378
2023-05-09T12:24:05.244Z,6.2627
2023-05-09T12:25:07.287Z,6.5669
2023-05-09T12:26:09.369Z,6.4134
2023-05-09T12:27:11.426Z,5.4717
2023-05-09T12:28:13.429Z,5.2388
2023-05-09T12:29:15.544Z,6.5997
2023-05-09T12:30:17.504Z,6.3106
2023-05-09T12:31:19.611Z,4.8960
2023-05-09T12:32:21.643Z,6.7594
2023-05-09T12:33:23.666Z,5.4085
2023-05-09T12:34:25.743Z,5.3179
2023-05-09T12:35:27.782Z,6.5062
2023-05-09T12:36:29.836Z,6.0785
2023-05-09T12:37:31.892Z,5.3030
2023-05-09T12:38:33.899Z,5.1663
2023-05-09T12:39:35.995Z,5.0380
2023-05-09T12:40:37.966Z,5.6350
2023-05-09T12:41:49.800Z,5.1765
2023-05-09T12:42:42.149Z,5.6859
2023-05-09T12:43:44.121Z,6.3400
2023-05-09T12:44:46.815Z,6.0986
2023-05-09T12:45:48.251Z,6.8397
2023-05-09T12:46:50.363Z,6.6180
2023-05-09T12:47:52.442Z,6.0594
2023-05-09T12:48:54.343Z,5.9669
2023-05-09T12:49:56.394Z,6.8150
2023-05-09T12:50:58.431Z,5.8072
2023-05-09T12:52:02.403Z,5.1092
2023-05-09T12:53:03.779Z,4.4711
2023-05-09T12:54:04.592Z,5.9902
2023-05-09T12:55:06.658Z,4.9717
2023-05-09T12:56:08.691Z,4.5524
2023-05-09T12:57:10.718Z,5.2258
2023-05-09T12:58:12.792Z,6.6420
2023-05-09T12:59:14.817Z,5.2155
2023-05-09T13:00:16.819Z,4.9342
2023-05-09T13:01:18.930Z,5.0042
2023-05-09T13:02:20.934Z,5.7330
2023-05-09T13:03:23.004Z,5.9985
2023-05-09T13:04:25.010Z,5.4747
2023-05-09T13:05:27.100Z,5.4910
2023-05-09T13:06:29.084Z,5.9751
2023-05-09T13:07:31.151Z,6.6869
2023-05-09T13:08:33.259Z,5.4180
2023-05-09T13:09:35.242Z,6.2026
2023-05-09T13:10:37.278Z,6.1077
2023-05-09T13:11:39.317Z,6.1458
2023-05-09T13:12:41.398Z,6.4490
2023-05-09T13:13:43.452Z,6.8933
2023-05-09T13:14:45.538Z,8.0467
2023-05-09T13:15:47.484Z,5.2639
2023-05-09T13:16:49.612Z,5.9626
2023-05-09T13:17:51.656Z,6.1062
2023-05-09T13:18:53.622Z,5.4966
2023-05-09T13:19:55.774Z,6.0874
2023-05-09T13:20:57.757Z,6.1529
2023-05-09T13:21:59.797Z,6.2216
2023-05-09T13:23:01.964Z,5.7736
2023-05-09T13:24:03.859Z,5.3666
2023-05-09T13:25:05.926Z,5.7608
2023-05-09T13:26:08.026Z,6.2439
2023-05-09T13:27:10.020Z,6.2881
2023-05-09T13:28:12.068Z,6.8996
2023-05-09T13:29:14.223Z,7.7475
2023-05-09T13:30:16.471Z,8.1240
2023-05-09T13:31:18.380Z,6.6176
2023-05-09T13:32:20.279Z,6.6970
2023-05-09T13:33:25.679Z,5.7728
2023-05-09T13:34:24.390Z,5.2085
2023-05-09T13:35:26.444Z,5.4869
2023-05-09T13:36:28.527Z,5.6000
2023-05-09T13:37:30.681Z,6.4918
2023-05-09T13:38:32.680Z,6.6971
2023-05-09T13:39:34.603Z,6.4857
2023-05-09T13:40:36.601Z,7.0657
2023-05-09T13:41:38.685Z,5.8338
2023-05-09T13:42:40.931Z,5.9383
2023-05-09T13:43:43.159Z,8.0575
2023-05-09T13:44:45.176Z,6.4442
2023-05-09T13:45:49.153Z,7.0508
2023-05-09T13:46:48.894Z,7.4580
2023-05-09T13:47:50.987Z,5.5955
2023-05-09T13:48:53.075Z,5.9834
2023-05-09T13:49:55.053Z,5.7876
2023-05-09T13:50:57.309Z,5.1596
2023-05-09T13:51:59.105Z,6.3663
2023-05-09T13:53:01.230Z,5.8475
2023-05-09T13:54:03.224Z,6.7110
2023-05-09T13:55:05.314Z,7.1054
2023-05-09T13:56:07.304Z,5.7526
2023-05-09T13:57:09.452Z,6.1985
2023-05-09T13:58:11.423Z,5.5367
2023-05-09T13:59:13.427Z,5.8133
2023-05-09T14:00:15.930Z,6.6130
2023-05-09T14:01:17.623Z,6.2343
2023-05-09T14:02:19.668Z,6.3072
2023-05-09T14:03:21.724Z,5.5079
2023-05-09T14:04:23.786Z,5.2275
2023-05-09T14:05:25.774Z,5.1711
2023-05-09T14:06:27.828Z,4.4193
2023-05-09T14:07:29.893Z,4.9314
2023-05-09T14:08:31.869Z,5.5903
2023-05-09T14:09:33.924Z,3.9237
2023-05-09T14:10:36.012Z,4.7888
2023-05-09T14:11:38.071Z,6.7414
2023-05-09T14:12:40.071Z,6.6778
2023-05-09T14:13:42.169Z,5.1226
2023-05-09T14:14:44.296Z,5.5435
2023-05-09T14:15:46.290Z,5.5805
2023-05-09T14:16:48.284Z,5.6697
2023-05-09T14:17:50.381Z,5.5381
2023-05-09T14:18:52.331Z,4.3536
2023-05-09T14:19:54.433Z,4.7759
2023-05-09T14:20:56.574Z,4.7727
2023-05-09T14:21:58.486Z,5.4968
2023-05-09T14:23:00.628Z,5.5741
2023-05-09T14:24:02.637Z,5.3744
2023-05-09T14:25:04.646Z,4.7781
2023-05-09T14:26:06.666Z,4.7195
2023-05-09T14:27:08.744Z,5.7826
2023-05-09T14:28:10.818Z,5.0174
2023-05-09T14:29:12.850Z,5.5116
2023-05-09T14:30:15.105Z,4.3363
2023-05-09T14:31:16.948Z,4.5427
2023-05-09T14:32:18.996Z,4.8910
2023-05-09T14:33:21.014Z,4.2596
2023-05-09T14:34:23.046Z,4.5190
2023-05-09T14:35:25.183Z,4.8337
2023-05-09T14:36:27.144Z,4.4386
2023-05-09T14:37:29.199Z,4.6811
2023-05-09T14:38:31.286Z,4.7564
2023-05-09T14:39:33.372Z,4.8901
2023-05-09T14:40:36.895Z,5.4455
2023-05-09T14:41:37.406Z,5.4093
2023-05-09T14:42:39.433Z,4.9857
2023-05-09T14:43:41.454Z,5.0260
2023-05-09T14:44:43.540Z,5.4678
2023-05-09T14:45:45.641Z,4.6491
2023-05-09T14:46:47.807Z,5.0917
2023-05-09T14:47:49.689Z,4.1743
2023-05-09T14:48:51.712Z,4.7615
2023-05-09T14:49:53.829Z,4.0688
2023-05-09T14:50:55.838Z,5.8488
2023-05-09T14:51:57.889Z,4.8301
2023-05-09T14:52:59.920Z,4.4423
2023-05-09T14:54:04.405Z,5.0977
2023-05-09T14:55:04.002Z,5.4496
2023-05-09T14:56:06.021Z,5.2483
2023-05-09T14:57:08.079Z,5.6003
2023-05-09T14:58:10.108Z,5.1270
2023-05-09T14:59:12.196Z,6.3657
2023-05-09T15:00:21.422Z,5.5643
2023-05-09T15:01:16.378Z,6.0971
2023-05-09T15:02:18.403Z,5.4855
2023-05-09T15:03:20.445Z,4.8775
2023-05-09T15:04:22.476Z,4.7541
2023-05-09T15:05:24.480Z,5.6138
2023-05-09T15:06:26.484Z,5.6471
2023-05-09T15:07:28.611Z,5.8586
2023-05-09T15:08:30.616Z,4.1843
2023-05-09T15:09:32.625Z,4.3014
2023-05-09T15:10:34.732Z,4.8351
2023-05-09T15:11:47.704Z,5.0402
2023-05-09T15:12:38.908Z,5.0766
2023-05-09T15:13:40.925Z,4.6719
2023-05-09T15:14:42.982Z,5.1055
2023-05-09T15:15:45.032Z,5.2859
2023-05-09T15:16:47.110Z,3.6059
2023-05-09T15:17:49.135Z,4.2604
2023-05-09T15:18:51.155Z,4.2069
2023-05-09T15:19:53.292Z,4.5628
2023-05-09T15:20:55.212Z,3.8480
2023-05-09T15:21:57.316Z,4.3159
2023-05-09T15:22:59.383Z,4.5501
2023-05-09T15:24:01.372Z,4.7560
2023-05-09T15:25:05.978Z,4.2027
2023-05-09T15:26:05.453Z,3.6902
2023-05-09T15:27:07.512Z,3.8469
2023-05-09T15:28:09.638Z,3.8181
2023-05-09T15:29:11.610Z,3.7393
2023-05-09T15:30:13.803Z,4.6529
2023-05-09T15:31:15.764Z,2.6131
2023-05-09T15:32:17.762Z,3.6800
2023-05-09T15:33:19.823Z,4.0572
2023-05-09T15:34:21.819Z,3.5566
2023-05-09T15:35:23.885Z,3.8538
2023-05-09T15:36:25.964Z,3.6843
2023-05-09T15:37:27.993Z,4.4915
2023-05-09T15:38:29.990Z,2.7580
2023-05-09T15:39:32.077Z,4.0690
2023-05-09T15:40:34.094Z,3.6805
2023-05-09T15:41:36.343Z,3.3859
2023-05-09T15:42:38.183Z,2.6938
2023-05-09T15:43:40.252Z,5.1587
2023-05-09T15:44:42.281Z,4.0841
2023-05-09T15:45:44.497Z,2.8990
2023-05-09T15:46:46.367Z,3.7282
2023-05-09T15:47:48.512Z,2.7288
2023-05-09T15:48:50.517Z,3.0311
2023-05-09T15:49:52.539Z,3.6806
2023-05-09T15:50:54.552Z,4.1816
2023-05-09T15:51:56.638Z,3.5194
2023-05-09T15:52:58.675Z,3.6709
2023-05-09T15:54:00.775Z,3.4383
2023-05-09T15:55:02.747Z,3.6307
2023-05-09T15:56:04.818Z,3.4227
2023-05-09T15:57:06.847Z,2.9423
2023-05-09T15:58:09.117Z,4.1974
2023-05-09T15:59:10.910Z,4.2610
2023-05-09T16:00:13.185Z,3.7429
2023-05-09T16:01:15.033Z,3.9859
2023-05-09T16:02:17.496Z,3.6471
2023-05-09T16:03:19.275Z,3.8046
2023-05-09T16:04:21.167Z,3.9811
2023-05-09T16:05:23.200Z,4.5524
2023-05-09T16:06:25.232Z,3.3539
2023-05-09T16:07:27.379Z,2.9721
2023-05-09T16:08:29.299Z,2.7532
2023-05-09T16:09:31.395Z,2.7797
2023-05-09T16:10:33.374Z,4.4191
2023-05-09T16:11:35.429Z,3.2710
2023-05-09T16:12:37.636Z,3.0689
2023-05-09T16:13:39.576Z,4.1150
2023-05-09T16:14:41.565Z,3.5322
2023-05-09T16:15:43.735Z,3.4041
2023-05-09T16:16:45.681Z,3.8314
2023-05-09T16:17:47.718Z,2.9242
2023-05-09T16:18:49.759Z,3.1423
2023-05-09T16:19:51.866Z,3.7828
2023-05-09T16:20:53.882Z,3.3892
2023-05-09T16:21:55.902Z,2.7041
2023-05-09T16:22:57.975Z,2.7150
2023-05-09T16:24:00.044Z,3.8599
2023-05-09T16:25:02.022Z,3.7278
2023-05-09T16:26:04.091Z,2.5378
2023-05-09T16:27:06.264Z,2.8716
2023-05-09T16:28:08.183Z,3.0470
2023-05-09T16:29:10.273Z,3.0473
2023-05-09T16:30:12.354Z,3.0214
2023-05-09T16:31:14.358Z,3.1183
2023-05-09T16:32:16.436Z,2.7786
2023-05-09T16:33:18.710Z,3.0214
2023-05-09T16:34:20.499Z,2.6761
2023-05-09T16:35:22.550Z,2.6594
2023-05-09T16:36:24.768Z,2.3196
2023-05-09T16:37:26.587Z,2.9847
2023-05-09T16:38:28.676Z,2.6305
2023-05-09T16:39:30.798Z,2.0519
2023-05-09T16:40:32.901Z,2.1874
2023-05-09T16:41:34.834Z,3.0587
2023-05-09T16:42:36.921Z,2.5620
2023-05-09T16:43:38.908Z,2.3220
2023-05-09T16:44:40.968Z,2.2846
2023-05-09T16:45:42.993Z,2.2744
2023-05-09T16:46:45.192Z,1.7550
2023-05-09T16:47:47.158Z,2.6010
2023-05-09T16:48:49.160Z,2.4536
2023-05-09T16:49:51.183Z,3.2977
2023-05-09T16:50:53.289Z,2.6469
2023-05-09T16:51:55.297Z,2.2567
2023-05-09T16:52:57.438Z,2.2387
2023-05-09T16:53:59.370Z,2.5833
2023-05-09T16:55:01.404Z,1.9561
2023-05-09T16:56:03.484Z,2.6430
2023-05-09T16:57:05.496Z,2.0846
2023-05-09T16:58:07.662Z,2.9959
2023-05-09T16:59:09.654Z,3.4264
2023-05-09T17:00:11.695Z,2.7207
2023-05-09T17:01:13.707Z,2.5990
2023-05-09T17:02:15.760Z,2.0036
2023-05-09T17:03:17.823Z,1.4691
2023-05-09T17:04:19.880Z,3.4037
2023-05-09T17:05:21.895Z,2.5427
2023-05-09T17:06:24.040Z,2.9489
2023-05-09T17:07:25.988Z,2.2529
2023-05-09T17:08:28.579Z,3.0120
2023-05-09T17:09:30.125Z,3.7127
2023-05-09T17:10:32.748Z,3.7252
2023-05-09T17:11:36.420Z,3.1182
2023-05-09T17:12:36.524Z,3.1919
2023-05-09T17:13:38.294Z,2.3442
2023-05-09T17:14:40.357Z,3.6283
2023-05-09T17:15:42.355Z,3.6807
2023-05-09T17:16:44.674Z,2.5592
2023-05-09T17:17:46.473Z,2.5387
2023-05-09T17:18:48.504Z,3.4224
2023-05-09T17:19:50.513Z,3.3615
2023-05-09T17:20:52.494Z,3.2919
2023-05-09T17:21:54.592Z,2.7229
2023-05-09T17:22:56.580Z,3.1093
2023-05-09T17:23:58.677Z,2.9351
2023-05-09T17:25:00.763Z,2.5697
2023-05-09T17:26:02.732Z,2.6051
2023-05-09T17:27:04.904Z,3.9071
2023-05-09T17:28:06.821Z,2.5996
2023-05-09T17:29:08.917Z,3.4559
2023-05-09T17:30:10.902Z,2.5446
2023-05-09T17:31:12.945Z,2.8144
2023-05-09T17:32:15.143Z,2.4855
2023-05-09T17:33:17.009Z,3.5579
2023-05-09T17:34:19.056Z,2.8658
2023-05-09T17:35:21.220Z,3.4232
2023-05-09T17:36:23.131Z,2.4705
2023-05-09T17:37:25.251Z,3.2463
2023-05-09T17:38:27.938Z,2.8793
2023-05-09T17:39:29.293Z,2.9222
2023-05-09T17:40:31.463Z,2.5721
2023-05-09T17:41:33.420Z,3.2966
2023-05-09T17:42:35.459Z,3.3017
2023-05-09T17:43:37.579Z,2.3367
2023-05-09T17:44:39.560Z,3.3794
2023-05-09T17:45:41.672Z,2.7638
2023-05-09T17:46:43.798Z,2.6475
2023-05-09T17:47:45.729Z,3.5691
2023-05-09T17:48:47.784Z,3.9865
2023-05-09T17:49:49.799Z,3.8386
2023-05-09T17:50:51.806Z,3.4094
2023-05-09T17:51:53.803Z,2.7590
2023-05-09T17:52:57.056Z,3.0534
2023-05-09T17:53:57.959Z,3.0935
2023-05-09T17:55:00.306Z,2.4462
2023-05-09T17:56:02.096Z,2.6750
2023-05-09T17:57:04.052Z,2.1568
2023-05-09T17:58:06.153Z,2.7331
2023-05-09T17:59:08.144Z,3.6777
2023-05-09T18:00:10.258Z,3.7811
2023-05-09T18:01:12.299Z,2.7793
2023-05-09T18:02:14.295Z,2.9709
2023-05-09T18:03:16.557Z,3.2765
2023-05-09T18:04:18.380Z,3.2148
2023-05-09T18:05:20.361Z,2.3188
2023-05-09T18:06:22.443Z,4.5969
2023-05-09T18:07:24.500Z,4.3215
2023-05-09T18:08:26.550Z,4.2964
2023-05-09T18:09:28.561Z,4.5176
2023-05-09T18:10:30.798Z,4.1542
2023-05-09T18:11:32.625Z,3.7402
2023-05-09T18:12:36.872Z,3.7606
2023-05-09T18:13:36.732Z,3.4517
2023-05-09T18:14:38.756Z,4.0296
2023-05-09T18:15:40.851Z,3.7646
2023-05-09T18:16:42.856Z,4.0070
2023-05-09T18:17:44.925Z,4.6488
2023-05-09T18:18:47.070Z,4.3701
2023-05-09T18:19:48.978Z,3.5867
2023-05-09T18:20:51.043Z,4.3554
2023-05-09T18:21:53.130Z,3.7502
2023-05-09T18:22:55.107Z,3.0854
2023-05-09T18:23:57.226Z,2.5953
2023-05-09T18:24:59.196Z,4.3538
2023-05-09T18:26:01.260Z,3.6540
2023-05-09T18:27:03.301Z,4.2759
2023-05-09T18:28:05.366Z,3.8600
2023-05-09T18:29:07.386Z,5.0911
2023-05-09T18:30:09.621Z,4.1123
2023-05-09T18:31:11.522Z,3.7172
2023-05-09T18:32:13.546Z,4.2662
2023-05-09T18:33:15.724Z,4.2653
2023-05-09T18:34:17.580Z,3.7659
2023-05-09T18:35:19.654Z,3.2967
2023-05-09T18:36:21.693Z,4.1497
2023-05-09T18:37:23.745Z,4.4424
2023-05-09T18:38:25.791Z,4.2375
2023-05-09T18:39:28.502Z,4.2216
2023-05-09T18:40:29.895Z,3.6359
2023-05-09T18:41:32.010Z,3.8318
2023-05-09T18:42:33.953Z,3.6352
2023-05-09T18:43:36.447Z,3.9578
2023-05-09T18:44:39.107Z,3.3671
2023-05-09T18:45:40.184Z,4.0559
2023-05-09T18:46:42.217Z,4.4343
2023-05-09T18:47:44.269Z,3.9451
2023-05-09T18:48:46.264Z,4.2020
2023-05-09T18:49:48.559Z,4.0064
2023-05-09T18:50:50.312Z,3.9690
2023-05-09T18:51:52.410Z,3.8615
2023-05-09T18:52:54.449Z,3.7050
2023-05-09T18:53:56.454Z,2.6471
2023-05-09T18:54:58.576Z,3.5266
2023-05-09T18:56:00.568Z,4.1198
2023-05-09T18:57:02.580Z,4.0516
2023-05-09T18:58:04.662Z,3.2103
2023-05-09T18:59:06.732Z,4.8113
2023-05-09T19:00:08.747Z,4.5872
2023-05-09T19:01:10.821Z,4.5773
2023-05-09T19:02:12.788Z,3.3753
2023-05-09T19:03:14.909Z,3.4930
2023-05-09T19:04:16.933Z,3.7329
2023-05-09T19:05:18.986Z,4.0744
2023-05-09T19:06:20.976Z,4.4917
2023-05-09T19:07:22.974Z,4.7183
2023-05-09T19:08:25.056Z,3.7372
2023-05-09T19:09:27.170Z,3.8260
2023-05-09T19:10:29.169Z,4.1920
2023-05-09T19:11:31.183Z,4.5083
2023-05-09T19:12:33.238Z,4.2512
2023-05-09T19:13:35.404Z,4.7720
2023-05-09T19:14:37.323Z,4.9279
2023-05-09T19:15:39.345Z,3.3463
2023-05-09T19:16:41.423Z,4.9777
2023-05-09T19:17:43.563Z,3.5201
2023-05-09T19:18:45.563Z,3.8992
2023-05-09T19:19:47.613Z,4.3284
2023-05-09T19:20:49.662Z,3.9775
2023-05-09T19:21:51.692Z,4.4468
2023-05-09T19:22:53.728Z,4.4004
2023-05-09T19:23:55.730Z,4.0736
2023-05-09T19:24:57.810Z,3.7151
2023-05-09T19:25:59.827Z,4.3563
2023-05-09T19:27:01.902Z,3.2323
2023-05-09T19:28:03.897Z,3.0978
2023-05-09T19:29:06.014Z,2.8983
2023-05-09T19:30:08.000Z,3.6946
2023-05-09T19:31:10.189Z,4.1751
2023-05-09T19:32:12.473Z,3.9686
2023-05-09T19:33:14.118Z,4.1938
2023-05-09T19:34:16.169Z,3.8911
2023-05-09T19:35:18.207Z,4.0967
2023-05-09T19:36:20.257Z,3.8342
2023-05-09T19:37:22.320Z,5.5229
2023-05-09T19:38:24.382Z,3.4491
2023-05-09T19:39:26.380Z,3.2726
2023-05-09T19:40:28.457Z,3.2118
2023-05-09T19:41:31.670Z,3.7598
2023-05-09T19:42:32.609Z,3.6147
2023-05-09T19:43:34.580Z,3.0894
2023-05-09T19:44:36.627Z,3.1565
2023-05-09T19:45:38.900Z,3.2879
2023-05-09T19:46:40.945Z,3.1850
2023-05-09T19:47:43.017Z,2.7362
2023-05-09T19:48:44.792Z,3.3594
2023-05-09T19:49:46.859Z,3.3743
2023-05-09T19:50:48.874Z,3.4151
2023-05-09T19:51:51.008Z,3.0130
2023-05-09T19:52:54.242Z,2.6286
2023-05-09T19:53:54.999Z,3.0942
2023-05-09T19:54:58.206Z,2.6413
2023-05-09T19:55:59.189Z,3.5174
2023-05-09T19:57:01.137Z,2.6512
2023-05-09T19:58:03.224Z,3.2073
2023-05-09T19:59:05.481Z,2.8931
2023-05-09T20:00:07.294Z,2.7811
2023-05-09T20:01:09.353Z,2.8129
2023-05-09T20:02:11.370Z,2.9632
2023-05-09T20:03:13.920Z,3.0806
2023-05-09T20:04:15.490Z,3.0636
2023-05-09T20:05:18.526Z,2.9737
2023-05-09T20:06:19.853Z,2.8179
2023-05-09T20:07:21.714Z,3.3344
2023-05-09T20:08:23.739Z,3.3462
2023-05-09T20:09:25.720Z,2.6023
2023-05-09T20:10:27.717Z,2.6841
2023-05-09T20:11:29.778Z,3.4263
2023-05-09T20:12:31.813Z,2.8841
2023-05-09T20:13:33.952Z,2.5529
2023-05-09T20:14:35.970Z,2.7740
2023-05-09T20:15:38.105Z,2.7178
2023-05-09T20:16:40.112Z,2.5747
2023-05-09T20:17:42.066Z,2.9125
2023-05-09T20:18:44.130Z,3.3219
2023-05-09T20:19:46.135Z,2.8465
2023-05-09T20:20:48.208Z,2.1794
2023-05-09T20:21:50.248Z,1.8639
2023-05-09T20:22:52.271Z,1.7890
2023-05-09T20:23:54.307Z,2.3240
2023-05-09T20:24:56.364Z,3.1661
2023-05-09T20:25:58.437Z,3.1135
2023-05-09T20:27:01.997Z,2.1136
2023-05-09T20:28:02.485Z,3.0786
2023-05-09T20:29:04.520Z,2.6899
2023-05-09T20:30:06.604Z,1.9563
2023-05-09T20:31:08.640Z,2.3967
2023-05-09T20:32:10.742Z,2.6049
2023-05-09T20:33:12.699Z,3.3151
2023-05-09T20:34:14.768Z,2.6350
2023-05-09T20:35:16.819Z,3.7996
2023-05-09T20:36:19.039Z,2.9140
2023-05-09T20:37:20.915Z,2.0160
2023-05-09T20:38:22.963Z,2.6722
2023-05-09T20:39:25.501Z,2.7511
2023-05-09T20:40:27.007Z,1.9864
2023-05-09T20:41:29.053Z,2.2598
2023-05-09T20:42:31.130Z,2.6946
2023-05-09T20:43:33.162Z,3.2295
2023-05-09T20:44:35.190Z,1.8961
2023-05-09T20:45:37.303Z,1.9644
2023-05-09T20:46:39.299Z,2.8049
2023-05-09T20:47:41.373Z,2.5284
2023-05-09T20:48:43.372Z,2.7942
2023-05-09T20:49:45.423Z,3.2764
2023-05-09T20:50:47.482Z,2.3076
2023-05-09T20:51:49.499Z,2.7400
2023-05-09T20:52:51.552Z,2.7386
2023-05-09T20:53:53.611Z,2.3056
2023-05-09T20:54:55.649Z,1.6709
2023-05-09T20:55:57.673Z,2.7473
2023-05-09T20:56:59.743Z,2.2155
2023-05-09T20:58:01.788Z,2.0986
2023-05-09T20:59:04.102Z,2.0130
